Strona główna
METAR-TAF:

METAR-TAF

Lotnisko :

Port lotniczy Genewa-Cointrin

Genewa, Szwajcaria

Szerokość geograficzna: 46-15N, Długość geograficzna: 006-08E, wysokość: 420 m

Aktualna obserwacja pogody

Raport powstał 27 minut temu, godzina 08:20 UTC
Wiatr 15 kt od północny wschód
Temperatura 2°C
Wilgotność 64%
Ciśnienie 1029 hPa
Widzialność 10 km lub więcej
Mało chmury na wysokości 3000 ft

METAR: LSGG 190820Z 04015KT 9999 FEW030 02/M04 Q1029 NOSIG

czas: 09:47 (08:47 UTC)

Prognoza

Raport powstał 22 minut temu, godzina 08:25 UTC
Prognoza ważna od 19 godzina 09 UTC do 20 godzina 15 UTC
Wiatr 15 kt od północny wschód w porywach dochodzący do 30 kt
Widzialność 10 km lub więcej
Mało chmury na wysokości 3000 ft
Prawdopodobieństwo 40% :
Przejściowo
od 20 godzina 02 UTC do 20 godzina 12 UTC
Wiatr 25 kt od północny wschód w porywach dochodzący do 40 kt

TAF: LSGG 190825Z 1909/2015 04015G30KT 9999 FEW030 TX04/1915Z TN00/2006Z TX03/2015Z PROB40 TEMPO 2002/2012 04025G40KT

Obserwacja i prognoza pogody dla ponad 4000 lotnisk (raport METAR i TAF).

Dostępne stacje oznaczono żółtymi i czerwonymi punktami na mapie.

Najedź kursorem aby zobaczyć nazwę stacji.

Kliknij aby zobaczyć obserwacje i prognozy pogody.

Aby zmienić mapę: kliknij na zielony przycisk z czarnym krzyżykiem, aby powiększyć; na zielony przycisk z myślnikiem, aby pomniejszyć; na zielone strzałki, aby przejść do map sąsiednich.


METAR-TAF: